Time;durP1;ratioP1;P1;durP2;ratioP2;P2;SDS_P1;SDS_P2;PMS_P1;PMS_P2;Temp;Humidity;BMP_temperature;BMP_pressure;BME280_temperature;BME280_humidity;BME280_pressure;Samples;Min_cycle;Max_cycle;Signal;HPM_P1;HPM_P2
2022/11/16 00:00:46;;;;;;;;;;;;;;;14.75;65.20;97930.06;2091992;28;19921;-46
2022/11/16 00:01:46;;;;;;;;;;;;;;;14.75;65.00;97927.38;2088656;28;19931;-47
2022/11/16 00:02:50;;;;;;;;;;;;;;;14.77;64.99;97924.53;2094200;28;19970;-47
2022/11/16 00:03:51;;;;;;;;;;;;;;;14.74;65.02;97918.56;2092441;28;19924;-47
2022/11/16 00:04:53;;;;;;;;;;;;;;;14.74;65.04;97925.75;2084577;28;19970;-47
2022/11/16 00:05:54;;;;;;;;;;;;;;;14.75;65.18;97922.03;2089405;28;20423;-45
2022/11/16 00:06:56;;;;;;;;;;;;;;;14.75;65.10;97914.03;2086967;28;19928;-46
2022/11/16 00:07:57;;;;;;;;;;;;;;;14.76;64.95;97918.34;2088360;28;20579;-46
2022/11/16 00:10:18;;;;;;;;;;;;;;;14.75;64.91;97930.06;2093881;28;20382;-48
2022/11/16 00:11:20;;;;;;;;;;;;;;;14.75;65.05;97924.72;2087613;28;19920;-47
2022/11/16 00:12:22;;;;;;;;;;;;;;;14.75;65.12;97922.88;2094223;28;19943;-46
2022/11/16 00:13:22;;;;;;;;;;;;;;;14.74;64.96;97920.41;2093312;28;19932;-45
2022/11/16 00:14:25;;;;;;;;;;;;;;;14.74;65.15;97925.75;2091644;28;19966;-45
2022/11/16 00:15:26;;;;;;;;;;;;;;;14.74;65.15;97923.91;2093234;28;19959;-45
2022/11/16 00:16:28;;;;;;;;;;;;;;;14.73;65.03;97921.41;2091260;28;19970;-46
2022/11/16 00:17:29;;;;;;;;;;;;;;;14.74;65.15;97920.41;2091616;28;19928;-48
2022/11/16 00:18:30;;;;;;;;;;;;;;;14.75;65.13;97924.72;2092565;28;20667;-45
2022/11/16 00:19:31;;;;;;;;;;;;;;;14.73;65.00;97911.53;2090681;28;19920;-48
2022/11/16 00:20:32;;;;;;;;;;;;;;;14.73;65.12;97906.22;2089927;28;19993;-45
2022/11/16 00:21:33;;;;;;;;;;;;;;;14.73;65.07;97902.72;2089466;28;20546;-47
2022/11/16 00:22:35;;;;;;;;;;;;;;;14.72;65.07;97895.75;2087098;28;19937;-48
2022/11/16 00:23:37;;;;;;;;;;;;;;;14.73;65.11;97892.88;2091338;28;20026;-48
2022/11/16 00:24:38;;;;;;;;;;;;;;;14.73;65.11;97897.38;2087273;28;19925;-46
2022/11/16 00:25:39;;;;;;;;;;;;;;;14.75;65.10;97898.03;2092348;28;19924;-46
2022/11/16 00:26:42;;;;;;;;;;;;;;;14.74;65.35;97888.38;2089669;28;19928;-48
2022/11/16 00:27:43;;;;;;;;;;;;;;;14.75;65.04;97895.34;2094074;28;19921;-46
2022/11/16 00:28:45;;;;;;;;;;;;;;;14.73;65.13;97892.03;2094022;28;19989;-46
2022/11/16 00:29:46;;;;;;;;;;;;;;;14.73;64.89;97887.53;2085554;28;20591;-48
2022/11/16 00:30:47;;;;;;;;;;;;;;;14.73;65.00;97889.38;2084740;28;19924;-48
2022/11/16 00:31:48;;;;;;;;;;;;;;;14.72;65.22;97891.22;2091418;28;19928;-47
2022/11/16 00:32:50;;;;;;;;;;;;;;;14.71;65.16;97886.91;2087855;28;20663;-47
2022/11/16 00:33:51;;;;;;;;;;;;;;;14.72;65.01;97882.41;2087440;28;20963;-47
2022/11/16 00:34:52;;;;;;;;;;;;;;;14.72;65.13;97879.72;2091243;28;19930;-48
2022/11/16 00:35:53;;;;;;;;;;;;;;;14.73;65.22;97881.38;2091558;28;19920;-44
2022/11/16 00:36:54;;;;;;;;;;;;;;;14.72;65.19;97880.53;2093054;28;20533;-46
2022/11/16 00:37:55;;;;;;;;;;;;;;;14.72;65.19;97879.72;2093248;28;19973;-46
2022/11/16 00:38:56;;;;;;;;;;;;;;;14.71;65.16;97872.75;2090797;28;19982;-47
2022/11/16 00:39:57;;;;;;;;;;;;;;;14.71;65.20;97867.41;2090286;28;19931;-47
2022/11/16 00:40:59;;;;;;;;;;;;;;;14.73;65.06;97876.03;2092840;28;20488;-48
2022/11/16 00:42:01;;;;;;;;;;;;;;;14.74;65.12;97873.19;2089141;28;19920;-48
2022/11/16 00:43:02;;;;;;;;;;;;;;;14.74;65.16;97867.03;2091748;28;20019;-47
2022/11/16 00:44:03;;;;;;;;;;;;;;;14.72;65.10;97858.38;2094269;28;20581;-45
2022/11/16 00:45:04;;;;;;;;;;;;;;;14.75;64.96;97866.81;2091148;28;19924;-48
2022/11/16 00:46:05;;;;;;;;;;;;;;;14.74;64.98;97861.69;2090299;28;19924;-46
2022/11/16 00:47:07;;;;;;;;;;;;;;;14.73;65.11;97868.84;2093048;28;19927;-46
2022/11/16 00:48:07;;;;;;;;;;;;;;;14.74;64.99;97854.50;2086967;28;19928;-46
2022/11/16 00:49:09;;;;;;;;;;;;;;;14.74;65.12;97853.66;2085843;28;19928;-48
2022/11/16 00:50:09;;;;;;;;;;;;;;;14.75;64.92;97857.97;2086155;28;20334;-47
2022/11/16 00:51:11;;;;;;;;;;;;;;;14.74;65.03;97862.50;2091793;28;19928;-45
2022/11/16 00:52:12;;;;;;;;;;;;;;;14.73;65.01;97850.16;2091260;28;20546;-46
2022/11/16 00:53:14;;;;;;;;;;;;;;;14.73;65.09;97849.34;2092453;28;19924;-46
2022/11/16 00:54:15;;;;;;;;;;;;;;;14.73;65.03;97855.50;2090408;28;19921;-48
2022/11/16 00:55:16;;;;;;;;;;;;;;;14.72;65.18;97850.38;2092161;28;19946;-47
2022/11/16 00:56:17;;;;;;;;;;;;;;;14.72;65.21;97855.72;2089036;28;19931;-47
2022/11/16 00:57:20;;;;;;;;;;;;;;;14.73;65.02;97852.00;2090666;28;19931;-48
2022/11/16 00:58:20;;;;;;;;;;;;;;;14.74;65.13;97853.66;2092378;28;19935;-46
2022/11/16 00:59:22;;;;;;;;;;;;;;;14.73;65.12;97849.34;2090483;28;19924;-49
2022/11/16 01:00:24;;;;;;;;;;;;;;;14.72;65.22;97850.38;2092820;28;19925;-47
2022/11/16 01:01:25;;;;;;;;;;;;;;;14.73;65.12;97850.16;2090783;28;19967;-47
2022/11/16 01:02:26;;;;;;;;;;;;;;;14.72;65.13;97837.84;2082418;28;19924;-46
2022/11/16 01:03:28;;;;;;;;;;;;;;;14.73;65.04;97846.66;2091624;28;19928;-45
2022/11/16 01:04:28;;;;;;;;;;;;;;;14.72;65.16;97847.69;2087424;28;20604;-47
2022/11/16 01:05:30;;;;;;;;;;;;;;;14.75;65.13;97849.97;2088551;28;19946;-46
2022/11/16 01:06:31;;;;;;;;;;;;;;;14.74;64.95;97846.47;2092146;28;19946;-46
2022/11/16 01:07:34;;;;;;;;;;;;;;;14.72;65.21;97842.34;2093831;28;19932;-49
2022/11/16 01:08:35;;;;;;;;;;;;;;;14.73;65.14;97836.00;2092469;28;19936;-46
2022/11/16 01:09:36;;;;;;;;;;;;;;;14.73;65.11;97836.81;2092136;28;20043;-46
2022/11/16 01:10:37;;;;;;;;;;;;;;;14.72;65.17;97831.69;2092791;28;19920;-46
2022/11/16 01:13:00;;;;;;;;;;;;;;;14.73;65.02;97831.47;2094961;28;19924;-48
2022/11/16 01:14:01;;;;;;;;;;;;;;;14.73;65.07;97830.66;2083179;28;19921;-48
2022/11/16 01:15:03;;;;;;;;;;;;;;;14.72;64.94;97831.69;2089821;28;19924;-46
2022/11/16 01:16:03;;;;;;;;;;;;;;;14.73;65.08;97834.13;2092921;28;19928;-49
2022/11/16 01:17:06;;;;;;;;;;;;;;;14.72;65.15;97826.34;2093143;28;20317;-45
2022/11/16 01:18:06;;;;;;;;;;;;;;;14.72;65.14;97818.34;2089259;28;19994;-46
2022/11/16 01:19:08;;;;;;;;;;;;;;;14.74;65.06;97818.97;2088599;28;19928;-47
2022/11/16 01:20:11;;;;;;;;;;;;;;;14.72;65.06;97818.34;2087881;28;21707;-47
2022/11/16 01:21:12;;;;;;;;;;;;;;;14.72;65.12;97821.81;2090875;28;19923;-46
2022/11/16 01:22:13;;;;;;;;;;;;;;;14.72;65.06;97821.81;2091898;28;20401;-46
2022/11/16 01:23:14;;;;;;;;;;;;;;;14.74;65.05;97821.63;2091041;28;19924;-46
2022/11/16 01:24:15;;;;;;;;;;;;;;;14.72;65.19;97821.00;2088427;28;19924;-46
2022/11/16 01:25:16;;;;;;;;;;;;;;;14.71;65.16;97822.84;2091793;28;20857;-48
2022/11/16 01:26:17;;;;;;;;;;;;;;;14.71;65.04;97820.19;2091220;28;19932;-48
2022/11/16 01:27:19;;;;;;;;;;;;;;;14.74;64.98;97826.97;2092477;28;20032;-47
2022/11/16 01:28:20;;;;;;;;;;;;;;;14.74;65.01;97818.97;2089931;28;20379;-48
2022/11/16 01:29:22;;;;;;;;;;;;;;;14.73;65.12;97822.63;2090795;28;19932;-50
2022/11/16 01:30:23;;;;;;;;;;;;;;;14.74;65.11;97821.63;2093769;28;20639;-46
2022/11/16 01:31:24;;;;;;;;;;;;;;;14.74;65.15;97818.97;2088191;28;19928;-45
2022/11/16 01:32:25;;;;;;;;;;;;;;;14.73;65.13;97817.31;2092154;28;19920;-47
2022/11/16 01:33:26;;;;;;;;;;;;;;;14.73;65.12;97814.63;2092898;28;20427;-46
2022/11/16 01:34:27;;;;;;;;;;;;;;;14.73;65.14;97809.28;2092406;28;19933;-46
2022/11/16 01:35:29;;;;;;;;;;;;;;;14.74;65.08;97816.31;2086646;28;21335;-47
2022/11/16 01:36:29;;;;;;;;;;;;;;;14.72;65.10;97810.31;2091999;28;19928;-47
2022/11/16 01:37:31;;;;;;;;;;;;;;;14.72;65.15;97810.31;2093308;28;19924;-46
2022/11/16 01:38:32;;;;;;;;;;;;;;;14.72;65.22;97816.47;2093544;28;19928;-47
2022/11/16 01:39:33;;;;;;;;;;;;;;;14.74;64.98;97824.31;2091177;28;19928;-45
2022/11/16 01:40:34;;;;;;;;;;;;;;;14.74;65.06;97814.44;2090852;28;19935;-47
2022/11/16 01:41:35;;;;;;;;;;;;;;;14.73;65.14;97818.13;2093088;28;22195;-47
2022/11/16 01:42:36;;;;;;;;;;;;;;;14.71;65.13;97819.38;2091496;28;19932;-47
2022/11/16 01:43:51;;;;;;;;;;;;;;;14.70;65.11;97812.38;2093903;28;22206;-47
2022/11/16 01:44:57;;;;;;;;;;;;;;;14.70;65.25;97807.03;2089379;28;19924;-45
2022/11/16 01:45:58;;;;;;;;;;;;;;;14.71;65.24;97803.34;2090579;28;20461;-47
2022/11/16 01:47:00;;;;;;;;;;;;;;;14.72;65.14;97794.31;2091834;28;20457;-46
2022/11/16 01:48:01;;;;;;;;;;;;;;;14.72;64.96;97802.31;2090804;28;19946;-47
2022/11/16 01:49:04;;;;;;;;;;;;;;;14.71;65.08;97796.16;2090526;28;19927;-46
2022/11/16 01:50:09;;;;;;;;;;;;;;;14.72;65.06;97788.97;2090494;28;20546;-47
2022/11/16 01:51:10;;;;;;;;;;;;;;;14.71;65.26;97788.16;2090211;28;20402;-45
2022/11/16 01:52:13;;;;;;;;;;;;;;;14.71;65.20;97790.00;2093913;28;20020;-46
2022/11/16 01:53:14;;;;;;;;;;;;;;;14.71;65.19;97787.34;2096250;28;20344;-47
2022/11/16 01:54:16;;;;;;;;;;;;;;;14.71;65.23;97787.34;2092844;28;20035;-47
2022/11/16 01:55:17;;;;;;;;;;;;;;;14.70;65.11;97781.16;2089399;28;19924;-47
2022/11/16 01:56:18;;;;;;;;;;;;;;;14.71;65.06;97776.66;2091343;28;19919;-46
2022/11/16 01:57:26;;;;;;;;;;;;;;;14.71;65.06;97777.47;2093084;28;19940;-45
2022/11/16 01:58:28;;;;;;;;;;;;;;;14.70;65.19;97773.16;2094870;28;19920;-46
2022/11/16 01:59:30;;;;;;;;;;;;;;;14.70;65.10;97767.81;2094859;28;19924;-46
2022/11/16 02:00:32;;;;;;;;;;;;;;;14.70;65.03;97775.81;2092911;28;19921;-46
2022/11/16 02:01:32;;;;;;;;;;;;;;;14.71;65.16;97777.47;2099500;28;20089;-48
2022/11/16 02:02:34;;;;;;;;;;;;;;;14.71;65.02;97779.34;2099876;28;19921;-47
2022/11/16 02:03:36;;;;;;;;;;;;;;;14.70;65.07;97770.47;2094217;27;19928;-47
2022/11/16 02:04:37;;;;;;;;;;;;;;;14.69;65.27;97768.84;2089963;28;19924;-47
2022/11/16 02:05:43;;;;;;;;;;;;;;;14.72;65.15;97770.28;2093503;28;20385;-45
2022/11/16 02:06:53;;;;;;;;;;;;;;;14.70;65.08;97775.00;2092422;28;19959;-46
2022/11/16 02:11:01;;;;;;;;;;;;;;;14.74;65.10;97769.06;2092833;28;20340;-48
2022/11/16 02:12:11;;;;;;;;;;;;;;;14.72;65.07;97757.75;2090137;28;19925;-46
2022/11/16 02:13:16;;;;;;;;;;;;;;;14.72;65.12;97767.63;2092615;28;19940;-45
2022/11/16 02:14:25;;;;;;;;;;;;;;;14.71;64.98;97766.81;2090299;28;20004;-49
2022/11/16 02:15:30;;;;;;;;;;;;;;;14.72;64.88;97763.09;2088983;28;19925;-45
2022/11/16 02:16:35;;;;;;;;;;;;;;;14.70;65.18;97769.66;2090644;28;19920;-46
2022/11/16 02:17:39;;;;;;;;;;;;;;;14.70;65.16;97762.47;2082015;28;19978;-48
2022/11/16 02:18:45;;;;;;;;;;;;;;;14.69;64.93;97763.50;2091336;28;20495;-46
2022/11/16 02:20:11;;;;;;;;;;;;;;;14.72;65.04;97770.28;2081465;28;20358;-47
2022/11/16 02:21:19;;;;;;;;;;;;;;;14.71;65.13;97757.97;2089890;28;20471;-47
2022/11/16 02:22:26;;;;;;;;;;;;;;;14.72;64.98;97759.63;2091759;28;20023;-48
2022/11/16 02:23:57;;;;;;;;;;;;;;;14.71;65.12;97753.47;2089596;28;19935;-46
2022/11/16 02:25:01;;;;;;;;;;;;;;;14.70;65.12;97758.97;2088799;28;19920;-48
2022/11/16 02:26:12;;;;;;;;;;;;;;;14.68;65.20;97758.34;2092258;28;19959;-46
2022/11/16 02:27:27;;;;;;;;;;;;;;;14.70;65.17;97751.78;2093073;28;19966;-48
2022/11/16 02:28:32;;;;;;;;;;;;;;;14.70;65.04;97748.31;2090777;28;19927;-49
2022/11/16 02:29:37;;;;;;;;;;;;;;;14.70;65.07;97745.63;2093531;28;19932;-45
2022/11/16 02:30:41;;;;;;;;;;;;;;;14.71;65.12;97750.78;2092173;28;19928;-48
2022/11/16 02:31:47;;;;;;;;;;;;;;;14.70;65.21;97740.28;2082161;28;19924;-47
2022/11/16 02:32:52;;;;;;;;;;;;;;;14.69;65.04;97736.00;2092371;28;19923;-47
2022/11/16 02:33:54;;;;;;;;;;;;;;;14.68;65.16;97739.66;2092998;28;19928;-45
2022/11/16 02:35:00;;;;;;;;;;;;;;;14.70;65.18;97737.63;2090270;28;20618;-47
2022/11/16 02:36:02;;;;;;;;;;;;;;;14.72;65.18;97735.59;2090608;28;19928;-46
2022/11/16 02:37:05;;;;;;;;;;;;;;;14.72;65.01;97732.94;2089036;28;19958;-46
2022/11/16 02:38:08;;;;;;;;;;;;;;;14.71;64.95;97733.97;2090500;28;20923;-47
2022/11/16 02:39:12;;;;;;;;;;;;;;;14.72;65.10;97741.75;2090116;28;20456;-46
2022/11/16 02:40:14;;;;;;;;;;;;;;;14.70;64.97;97733.09;2093313;28;19928;-47
2022/11/16 02:41:18;;;;;;;;;;;;;;;14.69;65.18;97736.81;2092270;28;20398;-46
2022/11/16 02:42:22;;;;;;;;;;;;;;;14.71;64.96;97734.78;2090351;28;19938;-46
2022/11/16 02:43:26;;;;;;;;;;;;;;;14.70;65.17;97727.78;2093962;28;20017;-46
2022/11/16 02:44:29;;;;;;;;;;;;;;;14.69;65.13;97731.47;2082916;28;19924;-48
2022/11/16 02:45:35;;;;;;;;;;;;;;;14.68;65.12;97723.66;2086833;28;19926;-47
2022/11/16 02:46:36;;;;;;;;;;;;;;;14.70;65.03;97726.94;2090145;28;19931;-45
2022/11/16 02:47:38;;;;;;;;;;;;;;;14.70;64.98;97727.78;2093839;28;19924;-45
2022/11/16 02:48:41;;;;;;;;;;;;;;;14.72;65.10;97724.91;2090512;28;19935;-45
2022/11/16 02:49:45;;;;;;;;;;;;;;;14.71;64.97;97725.94;2087347;28;20349;-45
2022/11/16 02:50:47;;;;;;;;;;;;;;;14.70;65.11;97729.63;2087050;28;19942;-46
2022/11/16 02:51:50;;;;;;;;;;;;;;;14.71;65.17;97723.28;2088403;28;20733;-45
2022/11/16 02:52:51;;;;;;;;;;;;;;;14.70;65.18;97726.94;2088197;28;19920;-44
2022/11/16 02:53:59;;;;;;;;;;;;;;;14.70;65.18;97732.28;2089470;28;19963;-45
2022/11/16 02:54:59;;;;;;;;;;;;;;;14.71;65.13;97723.28;2093848;28;19950;-46
2022/11/16 02:56:01;;;;;;;;;;;;;;;14.71;65.12;97729.44;2091404;28;19962;-53
2022/11/16 02:57:21;;;;;;;;;;;;;;;14.70;65.07;97724.28;2093915;28;19924;-45
2022/11/16 02:58:24;;;;;;;;;;;;;;;14.71;65.10;97723.28;2095685;28;19920;-44
2022/11/16 02:59:28;;;;;;;;;;;;;;;14.69;65.20;97726.13;2087324;28;19924;-49
2022/11/16 03:00:34;;;;;;;;;;;;;;;14.69;65.25;97717.31;2090714;28;19986;-46
2022/11/16 03:01:39;;;;;;;;;;;;;;;14.68;65.08;97719.16;2076941;28;20019;-47
2022/11/16 03:02:45;;;;;;;;;;;;;;;14.68;65.12;97720.97;2086530;28;20123;-45
2022/11/16 03:03:49;;;;;;;;;;;;;;;14.69;65.03;97717.31;2090013;28;19974;-47
2022/11/16 03:04:52;;;;;;;;;;;;;;;14.69;65.23;97711.97;2089000;28;19982;-46
2022/11/16 03:05:57;;;;;;;;;;;;;;;14.69;65.12;97710.13;2092424;28;19928;-46
2022/11/16 03:07:02;;;;;;;;;;;;;;;14.69;65.23;97709.31;2094218;28;20013;-46
2022/11/16 03:08:09;;;;;;;;;;;;;;;14.70;65.12;97710.94;2092542;28;19947;-46
2022/11/16 03:09:11;;;;;;;;;;;;;;;14.69;65.21;97710.13;2093343;28;19966;-46
2022/11/16 03:11:58;;;;;;;;;;;;;;;14.69;65.03;97701.31;2093452;28;19981;-46
2022/11/16 03:12:54;;;;;;;;;;;;;;;14.68;65.22;97700.47;2097463;28;19924;-46
2022/11/16 03:13:57;;;;;;;;;;;;;;;14.71;65.05;97696.59;2091909;28;20003;-45
2022/11/16 03:14:58;;;;;;;;;;;;;;;14.70;65.08;97697.59;2091843;28;20427;-46
2022/11/16 03:16:02;;;;;;;;;;;;;;;14.70;65.08;97698.41;2093943;28;19970;-46
2022/11/16 03:17:06;;;;;;;;;;;;;;;14.71;65.02;97704.59;2092884;28;19931;-46
2022/11/16 03:18:08;;;;;;;;;;;;;;;14.70;65.03;97705.59;2093235;28;19924;-45
2022/11/16 03:19:12;;;;;;;;;;;;;;;14.70;65.10;97701.09;2094529;28;19996;-47
2022/11/16 03:20:14;;;;;;;;;;;;;;;14.70;65.08;97700.25;2094172;28;19927;-47
2022/11/16 03:21:18;;;;;;;;;;;;;;;14.70;65.10;97702.94;2092808;28;19924;-46
2022/11/16 03:22:23;;;;;;;;;;;;;;;14.70;65.09;97697.59;2094155;28;19924;-45
2022/11/16 03:23:24;;;;;;;;;;;;;;;14.70;65.07;97693.06;2096643;28;20051;-46
2022/11/16 03:24:25;;;;;;;;;;;;;;;14.70;65.08;97684.25;2095377;28;19920;-46
2022/11/16 03:25:29;;;;;;;;;;;;;;;14.70;65.09;97692.25;2093678;28;20285;-46
2022/11/16 03:26:33;;;;;;;;;;;;;;;14.70;65.20;97684.25;2092203;28;19924;-47
2022/11/16 03:27:37;;;;;;;;;;;;;;;14.70;65.16;97686.91;2095736;28;19935;-45
2022/11/16 03:28:42;;;;;;;;;;;;;;;14.71;65.08;97683.25;2092487;28;19924;-47
2022/11/16 03:29:47;;;;;;;;;;;;;;;14.72;64.94;97682.22;2092369;28;19928;-45
2022/11/16 03:30:49;;;;;;;;;;;;;;;14.69;65.08;97683.44;2093288;28;19932;-47
2022/11/16 03:31:55;;;;;;;;;;;;;;;14.71;65.16;97684.06;2089966;28;19955;-45
2022/11/16 03:33:00;;;;;;;;;;;;;;;14.69;65.03;97669.28;2095193;28;21016;-47
2022/11/16 03:34:07;;;;;;;;;;;;;;;14.70;65.09;97670.91;2097685;28;19924;-46
2022/11/16 03:35:11;;;;;;;;;;;;;;;14.69;65.16;97678.09;2094693;28;19920;-46
2022/11/16 03:36:15;;;;;;;;;;;;;;;14.69;64.97;97679.94;2095217;28;20286;-46
2022/11/16 03:37:16;;;;;;;;;;;;;;;14.70;65.10;97668.25;2092497;28;20369;-45
2022/11/16 03:38:19;;;;;;;;;;;;;;;14.72;65.10;97672.34;2093307;28;19921;-46
2022/11/16 03:39:22;;;;;;;;;;;;;;;14.71;64.93;97669.91;2092490;28;19953;-46
2022/11/16 03:40:25;;;;;;;;;;;;;;;14.69;65.04;97667.41;2097273;28;20034;-46
2022/11/16 03:41:27;;;;;;;;;;;;;;;14.70;65.02;97666.38;2091697;28;19924;-45
2022/11/16 03:42:29;;;;;;;;;;;;;;;14.71;64.92;97667.22;2093986;28;19928;-48
2022/11/16 03:43:30;;;;;;;;;;;;;;;14.71;65.15;97664.56;2094924;28;19931;-46
2022/11/16 03:44:33;;;;;;;;;;;;;;;14.70;65.04;97668.25;2094208;28;19931;-46
2022/11/16 03:45:34;;;;;;;;;;;;;;;14.70;65.17;97665.56;2093411;28;19930;-45
2022/11/16 03:46:36;;;;;;;;;;;;;;;14.71;65.16;97665.38;2093726;27;19928;-46
2022/11/16 03:47:36;;;;;;;;;;;;;;;14.71;65.04;97672.56;2090853;28;19959;-45
2022/11/16 03:48:40;;;;;;;;;;;;;;;14.67;65.14;97666.78;2094846;28;21105;-46
2022/11/16 03:49:42;;;;;;;;;;;;;;;14.69;65.03;97666.59;2092419;28;19931;-45
2022/11/16 03:50:45;;;;;;;;;;;;;;;14.69;65.21;97671.94;2093845;28;19928;-46
2022/11/16 03:51:45;;;;;;;;;;;;;;;14.69;65.18;97667.41;2091474;28;19932;-46
2022/11/16 03:52:47;;;;;;;;;;;;;;;14.70;65.03;97662.91;2096135;28;19920;-44
2022/11/16 03:53:47;;;;;;;;;;;;;;;14.69;65.16;97667.41;2092702;28;20164;-46
2022/11/16 03:54:49;;;;;;;;;;;;;;;14.68;65.18;97660.44;2092563;28;19920;-45
2022/11/16 03:55:49;;;;;;;;;;;;;;;14.71;65.08;97659.22;2094150;28;19928;-46
2022/11/16 03:56:51;;;;;;;;;;;;;;;14.70;65.11;97658.38;2092113;28;19924;-47
2022/11/16 03:57:51;;;;;;;;;;;;;;;14.68;65.20;97657.78;2097902;28;19920;-45
2022/11/16 03:58:53;;;;;;;;;;;;;;;14.70;65.11;97654.88;2092932;28;20028;-46
2022/11/16 03:59:53;;;;;;;;;;;;;;;14.68;65.07;97652.44;2097877;28;19924;-45
2022/11/16 04:00:55;;;;;;;;;;;;;;;14.69;65.21;97653.25;2095171;28;19920;-48
2022/11/16 04:01:55;;;;;;;;;;;;;;;14.68;65.06;97651.59;2096998;28;19920;-48
2022/11/16 04:02:57;;;;;;;;;;;;;;;14.69;65.10;97653.25;2094771;28;19931;-46
2022/11/16 04:03:59;;;;;;;;;;;;;;;14.69;65.21;97656.75;2093304;28;19920;-47
2022/11/16 04:25:03;;;;;;;;;;;;;;;14.68;65.24;97655.09;2092531;28;20556;-48
2022/11/16 04:26:05;;;;;;;;;;;;;;;14.68;65.14;97648.94;2091342;28;19924;-46
2022/11/16 04:28:36;;;;;;;;;;;;;;;14.68;65.29;97651.59;2072413;28;19921;-47
2022/11/16 04:29:37;;;;;;;;;;;;;;;14.68;65.20;97648.94;2084847;28;20024;-46
2022/11/16 04:38:37;;;;;;;;;;;;;;;14.68;65.04;97630.25;2090965;28;19920;-46
2022/11/16 04:39:38;;;;;;;;;;;;;;;14.69;65.14;97639.91;2088560;28;19924;-47
2022/11/16 04:40:39;;;;;;;;;;;;;;;14.69;65.11;97637.25;2091240;28;19924;-45
2022/11/16 04:43:02;;;;;;;;;;;;;;;14.69;65.08;97637.25;2095901;28;20333;-45
2022/11/16 04:44:02;;;;;;;;;;;;;;;14.68;65.14;97630.25;2093583;28;19924;-44
2022/11/16 04:47:42;;;;;;;;;;;;;;;14.68;65.22;97622.22;2097373;28;19924;-44
2022/11/16 04:48:43;;;;;;;;;;;;;;;14.68;65.03;97619.56;2092658;28;19965;-44
2022/11/16 04:49:44;;;;;;;;;;;;;;;14.68;65.13;97616.91;2093467;28;19973;-45
2022/11/16 04:50:45;;;;;;;;;;;;;;;14.67;65.07;97613.41;2093271;28;19924;-46
2022/11/16 04:51:48;;;;;;;;;;;;;;;14.67;65.20;97604.59;2091196;28;19927;-44
2022/11/16 04:52:50;;;;;;;;;;;;;;;14.68;65.21;97598.22;2092992;28;19927;-45
2022/11/16 04:53:50;;;;;;;;;;;;;;;14.67;65.21;97597.41;2099110;28;19928;-45
2022/11/16 04:54:52;;;;;;;;;;;;;;;14.67;65.23;97602.72;2093525;28;19920;-45
2022/11/16 04:55:52;;;;;;;;;;;;;;;14.68;65.20;97604.41;2092541;28;20384;-45
2022/11/16 04:56:54;;;;;;;;;;;;;;;14.68;65.05;97601.72;2093657;28;20042;-44
2022/11/16 04:57:55;;;;;;;;;;;;;;;14.67;65.26;97601.91;2084099;28;19929;-44
2022/11/16 04:58:56;;;;;;;;;;;;;;;14.66;65.28;97601.09;2088808;28;19925;-50
2022/11/16 04:59:56;;;;;;;;;;;;;;;14.66;65.16;97593.09;2090641;28;19984;-47
2022/11/16 05:00:59;;;;;;;;;;;;;;;14.68;65.08;97596.41;2098786;28;19920;-46
2022/11/16 05:02:09;;;;;;;;;;;;;;;14.65;65.23;97591.44;2089100;28;20582;-45
2022/11/16 05:03:10;;;;;;;;;;;;;;;14.68;65.12;97595.53;2086660;28;19943;-46
2022/11/16 05:04:11;;;;;;;;;;;;;;;14.69;65.20;97594.53;2084994;28;19974;-47
2022/11/16 05:05:13;;;;;;;;;;;;;;;14.67;65.28;97593.91;2091759;28;20374;-46
2022/11/16 05:06:13;;;;;;;;;;;;;;;14.68;65.08;97590.22;2086696;28;19943;-45
2022/11/16 05:07:16;;;;;;;;;;;;;;;14.68;65.05;97592.88;2091809;28;19921;-46
2022/11/16 05:08:17;;;;;;;;;;;;;;;14.67;65.11;97585.91;2090185;28;20345;-46
2022/11/16 05:09:18;;;;;;;;;;;;;;;14.68;65.06;97587.53;2086107;28;19956;-46
2022/11/16 05:10:20;;;;;;;;;;;;;;;14.66;65.16;97587.75;2086920;28;20375;-45
2022/11/16 05:11:20;;;;;;;;;;;;;;;14.68;65.10;97580.38;2084980;28;20289;-46
2022/11/16 05:12:23;;;;;;;;;;;;;;;14.66;65.18;97578.94;2087489;28;19924;-44
2022/11/16 05:13:23;;;;;;;;;;;;;;;14.67;65.15;97577.91;2088921;28;19921;-49
2022/11/16 05:14:25;;;;;;;;;;;;;;;14.68;65.15;97576.88;2083451;28;20140;-45
2022/11/16 05:15:26;;;;;;;;;;;;;;;14.70;65.20;97577.50;2082194;28;19925;-45
2022/11/16 05:16:27;;;;;;;;;;;;;;;14.68;65.11;97585.72;2078131;28;19920;-46
2022/11/16 05:17:28;;;;;;;;;;;;;;;14.68;65.25;97574.19;2085098;28;19928;-47
2022/11/16 05:18:29;;;;;;;;;;;;;;;14.70;65.02;97577.50;2094447;28;20409;-46
2022/11/16 05:21:00;;;;;;;;;;;;;;;14.67;65.05;97570.72;2092190;28;19925;-46
2022/11/16 05:22:01;;;;;;;;;;;;;;;14.65;65.13;97578.09;2093050;28;19924;-47
2022/11/16 05:23:04;;;;;;;;;;;;;;;14.67;65.11;97573.38;2078805;28;20018;-45
2022/11/16 05:25:25;;;;;;;;;;;;;;;14.68;65.18;97576.88;2093651;28;19920;-47
2022/11/16 05:26:25;;;;;;;;;;;;;;;14.68;65.23;97579.53;2091466;28;19945;-47
2022/11/16 05:27:28;;;;;;;;;;;;;;;14.68;65.23;97583.03;2095229;28;19928;-50
2022/11/16 05:28:28;;;;;;;;;;;;;;;14.68;64.99;97576.88;2095575;28;20483;-47
2022/11/16 05:29:30;;;;;;;;;;;;;;;14.69;65.03;97578.53;2088875;28;19924;-45
2022/11/16 05:30:30;;;;;;;;;;;;;;;14.67;65.12;97570.72;2089941;28;19925;-47
2022/11/16 05:31:35;;;;;;;;;;;;;;;14.68;65.22;97576.88;2084150;28;19963;-45
2022/11/16 05:32:35;;;;;;;;;;;;;;;14.66;65.10;97574.41;2088405;28;19919;-47
2022/11/16 05:33:37;;;;;;;;;;;;;;;14.66;65.23;97574.41;2092901;28;20096;-44
2022/11/16 05:34:37;;;;;;;;;;;;;;;14.68;65.20;97574.19;2092168;28;19924;-47
2022/11/16 05:35:39;;;;;;;;;;;;;;;14.66;65.27;97568.25;2091702;28;19924;-46
2022/11/16 05:36:40;;;;;;;;;;;;;;;14.68;65.06;97571.53;2092949;28;19921;-45
2022/11/16 05:37:41;;;;;;;;;;;;;;;14.66;65.09;97570.94;2095051;28;20494;-46
2022/11/16 05:38:43;;;;;;;;;;;;;;;14.65;65.57;97575.41;2093406;28;20406;-46
2022/11/16 05:39:45;;;;;;;;;;;;;;;14.67;65.21;97572.56;2090897;28;19935;-46
2022/11/16 05:40:45;;;;;;;;;;;;;;;14.68;65.32;97582.19;2093530;28;19920;-45
2022/11/16 05:41:47;;;;;;;;;;;;;;;14.66;65.27;97565.59;2090690;28;20578;-44
2022/11/16 05:42:48;;;;;;;;;;;;;;;14.66;65.16;97565.59;2090685;28;19924;-46
2022/11/16 05:43:49;;;;;;;;;;;;;;;14.67;65.20;97567.22;2092255;28;20016;-46
2022/11/16 05:44:50;;;;;;;;;;;;;;;14.65;65.23;97555.91;2090740;28;19936;-46
2022/11/16 05:45:51;;;;;;;;;;;;;;;14.65;65.15;97563.94;2091101;28;20720;-45
2022/11/16 05:46:52;;;;;;;;;;;;;;;14.64;65.25;97552.44;2091075;28;19928;-45
2022/11/16 05:47:54;;;;;;;;;;;;;;;14.66;65.11;97560.25;2086727;28;19920;-46
2022/11/16 05:48:54;;;;;;;;;;;;;;;14.67;65.11;97562.69;2096709;28;19927;-44
2022/11/16 05:49:56;;;;;;;;;;;;;;;14.68;65.19;97559.03;2093580;28;20007;-46
2022/11/16 05:50:57;;;;;;;;;;;;;;;14.68;65.19;97559.03;2094296;28;19925;-45
2022/11/16 05:51:59;;;;;;;;;;;;;;;14.66;65.11;97557.59;2090673;28;19945;-45
2022/11/16 05:52:59;;;;;;;;;;;;;;;14.66;65.12;97554.91;2095015;28;20843;-45
2022/11/16 05:54:03;;;;;;;;;;;;;;;14.66;65.35;97554.91;2090157;28;20023;-45
2022/11/16 05:55:05;;;;;;;;;;;;;;;14.66;65.20;97561.06;2095135;28;19924;-45
2022/11/16 05:56:06;;;;;;;;;;;;;;;14.67;65.07;97562.69;2091480;28;19938;-47
2022/11/16 05:57:07;;;;;;;;;;;;;;;14.66;65.13;97560.25;2097290;28;19924;-48
2022/11/16 05:58:08;;;;;;;;;;;;;;;14.66;65.04;97563.75;2090254;28;19935;-45
2022/11/16 05:59:12;;;;;;;;;;;;;;;14.66;65.22;97557.59;2092341;28;19934;-48
2022/11/16 06:00:13;;;;;;;;;;;;;;;14.65;65.13;97553.25;2096126;28;19931;-49
2022/11/16 06:01:14;;;;;;;;;;;;;;;14.67;65.20;97556.56;2096015;28;19946;-47
2022/11/16 06:02:15;;;;;;;;;;;;;;;14.67;65.14;97557.38;2093980;28;19929;-47
2022/11/16 06:03:16;;;;;;;;;;;;;;;14.68;65.04;97552.84;2095362;28;19921;-49
2022/11/16 06:04:17;;;;;;;;;;;;;;;14.67;65.16;97560.03;2094158;28;20071;-48
2022/11/16 06:05:19;;;;;;;;;;;;;;;14.68;65.12;97560.84;2093451;28;19936;-45
2022/11/16 06:06:19;;;;;;;;;;;;;;;14.67;65.01;97552.03;2095052;28;20601;-46
2022/11/16 06:07:21;;;;;;;;;;;;;;;14.67;65.14;97552.03;2093649;28;19935;-46
2022/11/16 06:08:21;;;;;;;;;;;;;;;14.66;65.00;97552.25;2097320;28;19931;-48
2022/11/16 06:09:24;;;;;;;;;;;;;;;14.66;65.30;97557.59;2093928;28;19920;-45